Time;durP1;ratioP1;P1;durP2;ratioP2;P2;SDS_P1;SDS_P2;PMS_P1;PMS_P2;Temp;Humidity;BMP_temperature;BMP_pressure;BME280_temperature;BME280_humidity;BME280_pressure;Samples;Min_cycle;Max_cycle;Signal;HPM_P1;HPM_P2
2021/12/27 00:00:14;;;;;;;32.73;18.30;;;-5.10;99.90;;;;;;5076148;28;20462;-68
2021/12/27 00:02:44;;;;;;;34.23;18.83;;;-5.10;99.90;;;;;;5076603;28;20449;-68
2021/12/27 00:05:13;;;;;;;41.47;19.20;;;-5.10;99.90;;;;;;5076752;28;20454;-68
2021/12/27 00:07:39;;;;;;;30.50;17.47;;;-5.10;99.90;;;;;;5076851;28;20488;-68
2021/12/27 00:10:07;;;;;;;33.63;19.47;;;-5.10;99.90;;;;;;5077382;28;20454;-68
2021/12/27 00:12:34;;;;;;;30.57;18.67;;;-5.10;99.90;;;;;;5077450;28;20449;-68
2021/12/27 00:15:01;;;;;;;36.67;18.87;;;-5.10;99.90;;;;;;5076481;28;20465;-68
2021/12/27 00:17:27;;;;;;;34.80;20.87;;;-5.10;99.90;;;;;;5076608;28;20484;-68
2021/12/27 00:19:56;;;;;;;39.90;21.80;;;-5.10;99.90;;;;;;5076272;28;20492;-68
2021/12/27 00:22:24;;;;;;;44.43;20.30;;;-5.00;99.90;;;;;;5075856;28;21015;-68
2021/12/27 00:24:51;;;;;;;35.37;20.03;;;-5.10;99.90;;;;;;5075976;28;20530;-68
2021/12/27 00:27:19;;;;;;;39.23;20.47;;;-5.20;99.90;;;;;;5075670;28;20482;-68
2021/12/27 00:29:46;;;;;;;31.70;19.40;;;-5.20;99.90;;;;;;5075552;28;20926;-68
2021/12/27 00:32:13;;;;;;;36.13;20.63;;;-5.10;99.90;;;;;;5075612;28;20454;-68
2021/12/27 00:34:40;;;;;;;41.90;21.90;;;-5.10;99.90;;;;;;5074705;28;20919;-69
2021/12/27 00:37:08;;;;;;;36.57;21.10;;;-5.10;99.90;;;;;;5075448;28;20458;-68
2021/12/27 00:39:37;;;;;;;46.77;23.03;;;-5.10;99.90;;;;;;5075574;28;20488;-68
2021/12/27 00:42:05;;;;;;;41.47;22.27;;;-5.20;99.90;;;;;;5075400;28;20835;-69
2021/12/27 00:44:35;;;;;;;38.10;20.53;;;-5.20;99.90;;;;;;5075651;28;20454;-69
2021/12/27 00:47:02;;;;;;;41.80;20.97;;;-5.30;99.90;;;;;;5075301;28;20466;-69
2021/12/27 00:49:29;;;;;;;40.73;20.47;;;-5.30;99.90;;;;;;5075311;28;20538;-69
2021/12/27 00:51:56;;;;;;;40.80;22.30;;;-5.30;99.90;;;;;;5075208;28;20515;-69
2021/12/27 00:54:23;;;;;;;37.53;22.37;;;-5.20;99.90;;;;;;5075502;28;20529;-69
2021/12/27 00:56:51;;;;;;;36.70;19.07;;;-5.30;99.90;;;;;;5075242;28;20481;-68
2021/12/27 00:59:18;;;;;;;40.90;20.50;;;-5.30;99.90;;;;;;5075103;28;20490;-69
2021/12/27 01:01:45;;;;;;;38.00;21.77;;;-5.30;99.90;;;;;;5074910;28;20485;-69
2021/12/27 01:04:11;;;;;;;47.57;22.80;;;-5.30;99.90;;;;;;5075120;28;20475;-69
2021/12/27 01:06:38;;;;;;;37.73;21.60;;;-5.30;99.90;;;;;;5075034;28;20458;-69
2021/12/27 01:09:05;;;;;;;40.90;21.67;;;-5.30;99.90;;;;;;5074914;28;20528;-69
2021/12/27 01:11:40;;;;;;;41.07;21.90;;;-5.30;99.90;;;;;;5074583;28;20453;-69
2021/12/27 01:14:15;;;;;;;50.23;24.13;;;-5.20;99.90;;;;;;5074895;28;20496;-69
2021/12/27 01:16:44;;;;;;;42.30;21.70;;;-5.20;99.90;;;;;;5075055;28;20451;-69
2021/12/27 01:19:11;;;;;;;41.50;21.50;;;-5.10;99.90;;;;;;5077080;28;20461;-69
2021/12/27 01:21:38;;;;;;;42.90;21.83;;;-5.10;99.90;;;;;;5078991;28;20482;-69
2021/12/27 01:24:06;;;;;;;41.53;21.50;;;-5.10;99.90;;;;;;5077446;28;20911;-69
2021/12/27 01:26:33;;;;;;;42.30;23.10;;;-5.10;99.90;;;;;;5074574;28;20494;-69
2021/12/27 01:29:01;;;;;;;46.63;22.27;;;-5.10;99.90;;;;;;5074548;28;20459;-69
2021/12/27 01:31:30;;;;;;;44.80;20.90;;;-5.20;99.90;;;;;;5074602;28;20435;-67
2021/12/27 01:33:57;;;;;;;44.53;23.10;;;-5.10;99.90;;;;;;5074693;28;20789;-69
2021/12/27 01:36:23;;;;;;;41.50;21.90;;;-5.10;99.90;;;;;;5075016;28;20523;-68
2021/12/27 01:38:50;;;;;;;45.00;23.70;;;-5.10;99.90;;;;;;5074591;28;20461;-69
2021/12/27 01:41:21;;;;;;;42.30;22.17;;;-5.10;99.90;;;;;;5074609;28;20479;-67
2021/12/27 01:43:54;;;;;;;42.03;23.10;;;-5.10;99.90;;;;;;5074816;28;20536;-69
2021/12/27 01:46:24;;;;;;;44.10;24.30;;;-5.00;99.90;;;;;;5075050;28;20449;-67
2021/12/27 01:48:56;;;;;;;49.00;24.40;;;-5.00;99.90;;;;;;5074691;28;20464;-69
2021/12/27 01:51:25;;;;;;;47.23;23.43;;;-4.90;99.90;;;;;;5074739;28;20440;-68
2021/12/27 01:53:52;;;;;;;54.47;23.90;;;-4.90;99.90;;;;;;5074870;28;20530;-68
2021/12/27 01:56:21;;;;;;;43.83;24.10;;;-4.90;99.90;;;;;;5075370;28;20458;-68
2021/12/27 01:58:48;;;;;;;45.50;24.17;;;-4.90;99.90;;;;;;5075934;28;20752;-68
2021/12/27 02:01:19;;;;;;;51.03;24.53;;;-4.90;99.90;;;;;;5075489;28;20481;-68
2021/12/27 02:03:46;;;;;;;39.77;24.27;;;-4.90;99.90;;;;;;5074908;28;20462;-68
2021/12/27 02:06:15;;;;;;;45.93;23.30;;;-4.90;99.90;;;;;;5075546;28;20462;-68
2021/12/27 02:08:44;;;;;;;47.83;24.27;;;-4.90;99.90;;;;;;5074759;28;20454;-69
2021/12/27 02:11:15;;;;;;;42.60;24.80;;;-4.80;99.90;;;;;;5074098;28;20526;-69
2021/12/27 02:13:44;;;;;;;47.37;25.70;;;-4.80;99.90;;;;;;5074508;28;20507;-69
2021/12/27 02:16:12;;;;;;;50.30;23.77;;;-4.80;99.90;;;;;;5074107;28;20458;-68
2021/12/27 02:18:40;;;;;;;45.47;24.53;;;-4.80;99.90;;;;;;5073988;28;20933;-69
2021/12/27 02:21:09;;;;;;;47.40;25.47;;;-4.80;99.90;;;;;;5075156;28;20486;-69
2021/12/27 02:23:38;;;;;;;50.47;26.30;;;-4.80;99.90;;;;;;5077816;28;20462;-69
2021/12/27 02:26:05;;;;;;;39.53;24.27;;;-4.80;99.90;;;;;;5077531;28;20513;-68
2021/12/27 02:28:33;;;;;;;47.93;26.40;;;-4.80;99.90;;;;;;5077791;28;20490;-68
2021/12/27 02:31:00;;;;;;;45.70;25.13;;;-4.80;99.90;;;;;;5077852;28;20907;-68
2021/12/27 02:33:26;;;;;;;48.60;27.67;;;-4.80;99.90;;;;;;5077647;28;20513;-67
2021/12/27 02:35:57;;;;;;;46.97;25.20;;;-4.80;99.90;;;;;;5078031;28;20465;-68
2021/12/27 02:38:28;;;;;;;42.43;24.30;;;-4.80;99.90;;;;;;5078346;28;20799;-68
2021/12/27 02:40:56;;;;;;;44.27;23.43;;;-4.80;99.90;;;;;;5077756;28;20820;-67
2021/12/27 02:43:24;;;;;;;41.80;23.57;;;-4.70;99.90;;;;;;5077853;28;20553;-68
2021/12/27 02:45:53;;;;;;;45.37;24.67;;;-4.60;99.90;;;;;;5077727;28;20633;-68
2021/12/27 02:48:24;;;;;;;51.23;26.13;;;-4.60;99.90;;;;;;5077682;28;20462;-68
2021/12/27 02:50:53;;;;;;;53.30;25.17;;;-4.60;99.90;;;;;;5077407;28;20457;-69
2021/12/27 02:53:20;;;;;;;42.23;22.47;;;-4.50;99.90;;;;;;5077633;28;20465;-69
2021/12/27 02:55:52;;;;;;;46.87;24.57;;;-4.50;99.90;;;;;;5077111;28;20456;-69
2021/12/27 02:58:18;;;;;;;54.70;24.83;;;-4.50;99.90;;;;;;5077359;28;20446;-69
2021/12/27 03:00:49;;;;;;;41.13;23.87;;;-4.50;99.90;;;;;;5077440;28;20471;-69
2021/12/27 03:03:19;;;;;;;49.13;25.80;;;-4.50;99.90;;;;;;5077121;28;20468;-69
2021/12/27 03:05:46;;;;;;;51.00;24.50;;;-4.50;99.90;;;;;;5077574;28;20465;-69
2021/12/27 03:08:14;;;;;;;44.80;25.80;;;-4.50;99.90;;;;;;5077550;28;20483;-69
2021/12/27 03:10:43;;;;;;;54.53;26.37;;;-4.50;99.90;;;;;;5077021;28;20458;-69
2021/12/27 03:13:16;;;;;;;59.80;26.20;;;-4.40;99.90;;;;;;5077134;28;20461;-67
2021/12/27 03:15:43;;;;;;;47.70;25.00;;;-4.40;99.90;;;;;;5077515;28;20816;-68
2021/12/27 03:18:14;;;;;;;48.33;24.97;;;-4.30;99.90;;;;;;5077401;28;20454;-68
2021/12/27 03:20:44;;;;;;;43.20;22.77;;;-4.30;99.90;;;;;;5076590;28;20446;-68
2021/12/27 03:23:11;;;;;;;49.40;23.20;;;-4.40;99.90;;;;;;5076932;28;20493;-68
2021/12/27 03:25:39;;;;;;;42.63;24.23;;;-4.40;99.90;;;;;;5076857;28;20467;-68
2021/12/27 03:28:07;;;;;;;47.17;24.60;;;-4.30;99.90;;;;;;5076896;28;21014;-68
2021/12/27 03:30:35;;;;;;;45.07;23.90;;;-4.30;99.90;;;;;;5076950;28;20454;-68
2021/12/27 03:33:04;;;;;;;45.50;24.50;;;-4.30;99.90;;;;;;5076136;28;20778;-68
2021/12/27 03:35:35;;;;;;;45.10;21.03;;;-4.30;99.90;;;;;;5076807;28;20462;-68
2021/12/27 03:38:04;;;;;;;37.67;21.23;;;-4.30;99.90;;;;;;5076927;28;20438;-68
2021/12/27 03:40:31;;;;;;;50.47;24.70;;;-4.30;99.90;;;;;;5077424;28;20458;-68
2021/12/27 03:42:58;;;;;;;45.53;22.30;;;-4.30;99.90;;;;;;5076677;28;20488;-69
2021/12/27 03:45:26;;;;;;;51.13;26.00;;;-4.30;99.90;;;;;;5076279;28;20456;-68
2021/12/27 03:47:57;;;;;;;47.47;24.67;;;-4.20;99.90;;;;;;5076625;28;20455;-69
2021/12/27 03:50:24;;;;;;;42.27;21.50;;;-4.20;99.90;;;;;;5076372;28;20439;-69
2021/12/27 03:52:52;;;;;;;49.50;23.80;;;-4.20;99.90;;;;;;5076468;28;20453;-69
2021/12/27 03:55:19;;;;;;;45.80;23.67;;;-4.10;99.90;;;;;;5076385;28;20843;-68
2021/12/27 03:57:52;;;;;;;53.00;25.07;;;-4.10;99.90;;;;;;5076415;28;20461;-68
2021/12/27 04:00:32;;;;;;;46.90;22.67;;;-4.00;99.90;;;;;;5076338;28;20575;-68
2021/12/27 04:03:02;;;;;;;41.23;21.87;;;-4.10;99.90;;;;;;5076134;28;20494;-68
2021/12/27 04:05:30;;;;;;;47.97;24.40;;;-4.20;99.90;;;;;;5077347;28;20458;-68
2021/12/27 04:08:01;;;;;;;54.00;23.67;;;-4.20;99.90;;;;;;5076189;28;20488;-68
2021/12/27 04:10:31;;;;;;;44.23;22.90;;;-4.10;99.90;;;;;;5076969;28;20449;-67
2021/12/27 04:12:58;;;;;;;46.23;23.03;;;-4.10;99.90;;;;;;5077184;28;20438;-70
2021/12/27 04:15:25;;;;;;;44.13;22.40;;;-4.10;99.90;;;;;;5075682;28;20552;-68
2021/12/27 04:17:52;;;;;;;44.40;23.90;;;-4.10;99.90;;;;;;5076368;28;20545;-68
2021/12/27 04:20:21;;;;;;;50.20;24.10;;;-4.00;99.90;;;;;;5076357;28;20461;-69
2021/12/27 04:22:48;;;;;;;47.03;23.20;;;-4.00;99.90;;;;;;5075944;28;20568;-68
2021/12/27 04:25:15;;;;;;;42.50;21.57;;;-4.00;99.90;;;;;;5076002;28;20461;-69
2021/12/27 04:27:42;;;;;;;43.50;22.63;;;-4.00;99.90;;;;;;5075375;28;20497;-68
2021/12/27 04:30:10;;;;;;;42.27;23.97;;;-4.10;99.90;;;;;;5076119;28;20512;-68
2021/12/27 04:32:36;;;;;;;43.87;23.53;;;-4.10;99.90;;;;;;5076244;28;20838;-69
2021/12/27 04:35:04;;;;;;;39.37;22.27;;;-4.10;99.90;;;;;;5075932;28;20468;-69
2021/12/27 04:37:32;;;;;;;46.53;23.77;;;-4.20;99.90;;;;;;5076168;28;20457;-69
2021/12/27 04:40:00;;;;;;;51.97;24.17;;;-4.20;99.90;;;;;;5076498;28;20458;-69
2021/12/27 04:42:29;;;;;;;51.13;23.13;;;-4.30;99.90;;;;;;5078129;28;20933;-69
2021/12/27 04:44:56;;;;;;;49.60;22.70;;;-4.20;99.90;;;;;;5077063;28;20458;-69
2021/12/27 04:47:23;;;;;;;43.13;24.03;;;-4.10;99.90;;;;;;5078257;28;20514;-69
2021/12/27 04:49:50;;;;;;;44.90;23.87;;;-4.10;99.90;;;;;;5077324;28;20468;-68
2021/12/27 04:52:18;;;;;;;47.37;23.30;;;-4.00;99.90;;;;;;5076024;28;20876;-69
2021/12/27 04:54:46;;;;;;;47.00;24.00;;;-4.00;99.90;;;;;;5075885;28;20508;-68
2021/12/27 04:57:15;;;;;;;48.37;23.80;;;-3.90;99.90;;;;;;5075538;28;20801;-68
2021/12/27 04:59:44;;;;;;;48.73;24.00;;;-3.90;99.90;;;;;;5075250;28;20470;-68
2021/12/27 05:02:11;;;;;;;45.17;23.90;;;-3.90;99.90;;;;;;5075108;28;21002;-69
2021/12/27 05:04:38;;;;;;;44.97;23.83;;;-3.80;99.90;;;;;;5074132;28;20470;-68
2021/12/27 05:07:04;;;;;;;46.30;23.50;;;-3.80;99.90;;;;;;5075257;28;20454;-68
2021/12/27 05:09:31;;;;;;;43.63;23.20;;;-3.80;99.90;;;;;;5075081;28;20783;-68
2021/12/27 05:11:59;;;;;;;56.03;26.17;;;-3.80;99.90;;;;;;5075135;28;20468;-68
2021/12/27 05:14:26;;;;;;;47.57;23.80;;;-3.90;99.90;;;;;;5074993;28;20461;-68
2021/12/27 05:16:53;;;;;;;37.50;21.60;;;-3.90;99.90;;;;;;5074952;28;20469;-68
2021/12/27 05:19:20;;;;;;;45.27;23.27;;;-3.80;99.90;;;;;;5075200;28;20514;-68
2021/12/27 05:21:47;;;;;;;40.90;21.77;;;-3.80;99.90;;;;;;5074964;28;20461;-69
2021/12/27 05:24:13;;;;;;;50.40;26.30;;;-3.80;99.90;;;;;;5074663;28;20465;-67
2021/12/27 05:26:40;;;;;;;45.27;24.43;;;-3.70;99.90;;;;;;5074609;28;20478;-68
2021/12/27 05:29:10;;;;;;;46.13;23.10;;;-3.60;99.90;;;;;;5074863;28;20455;-68
2021/12/27 05:31:37;;;;;;;43.67;22.80;;;-3.50;99.90;;;;;;5075153;28;20465;-67
2021/12/27 05:34:04;;;;;;;52.40;24.33;;;-3.50;99.90;;;;;;5074755;28;20916;-68
2021/12/27 05:36:30;;;;;;;51.53;24.63;;;-3.40;99.90;;;;;;5074881;28;20458;-69
2021/12/27 05:38:57;;;;;;;45.50;23.53;;;-3.40;99.90;;;;;;5074665;28;20481;-69
2021/12/27 05:41:24;;;;;;;44.00;24.00;;;-3.40;99.90;;;;;;5074423;28;20472;-68
2021/12/27 05:43:50;;;;;;;49.50;25.07;;;-3.30;99.90;;;;;;5074780;28;20570;-68
2021/12/27 05:46:21;;;;;;;47.97;24.50;;;-3.30;99.90;;;;;;5074549;28;20542;-68
2021/12/27 05:48:48;;;;;;;39.50;23.00;;;-3.20;99.90;;;;;;5074581;28;20450;-69
2021/12/27 05:51:14;;;;;;;43.30;23.23;;;-3.30;99.90;;;;;;5074508;28;20465;-69
2021/12/27 05:53:42;;;;;;;46.80;22.83;;;-3.30;99.90;;;;;;5074715;28;20475;-69
2021/12/27 05:56:09;;;;;;;49.77;23.53;;;-3.20;99.90;;;;;;5075634;28;20482;-68
2021/12/27 05:58:36;;;;;;;47.90;24.33;;;-3.20;99.90;;;;;;5078452;28;20898;-69
2021/12/27 06:01:03;;;;;;;43.07;22.37;;;-3.20;99.90;;;;;;5078337;28;20469;-69
2021/12/27 06:03:31;;;;;;;43.23;23.60;;;-3.20;99.90;;;;;;5078631;28;20477;-69
2021/12/27 06:05:57;;;;;;;41.93;23.87;;;-3.10;99.90;;;;;;5078558;28;20783;-69
2021/12/27 06:08:24;;;;;;;47.07;25.23;;;-3.10;99.90;;;;;;5078171;28;20466;-69
2021/12/27 06:10:53;;;;;;;48.30;23.67;;;-3.10;99.90;;;;;;5078390;28;20461;-69
2021/12/27 06:13:19;;;;;;;50.37;23.07;;;-3.10;99.90;;;;;;5078533;28;20449;-68
2021/12/27 06:15:46;;;;;;;50.03;25.63;;;-3.00;99.90;;;;;;5078702;28;20926;-69
2021/12/27 06:18:13;;;;;;;44.17;21.63;;;-3.00;99.90;;;;;;5079115;28;20468;-69
2021/12/27 06:20:41;;;;;;;46.53;22.60;;;-3.00;99.90;;;;;;5079309;28;20519;-69
2021/12/27 06:23:08;;;;;;;45.27;23.93;;;-3.00;99.90;;;;;;5079193;28;20487;-69
2021/12/27 06:25:34;;;;;;;44.17;23.50;;;-3.00;99.90;;;;;;5078832;28;20465;-68
2021/12/27 06:28:01;;;;;;;51.87;24.20;;;-2.90;99.90;;;;;;5078137;28;20470;-68
2021/12/27 06:30:28;;;;;;;52.73;24.40;;;-2.90;99.90;;;;;;5078677;28;20527;-69
2021/12/27 06:32:54;;;;;;;44.63;24.50;;;-2.90;99.90;;;;;;5078619;28;20518;-69
2021/12/27 06:35:21;;;;;;;43.63;22.93;;;-2.80;99.90;;;;;;5078849;28;20454;-69
2021/12/27 06:37:49;;;;;;;45.33;24.30;;;-2.80;99.90;;;;;;5081572;28;20563;-68
2021/12/27 06:40:18;;;;;;;48.13;23.80;;;-2.90;99.90;;;;;;5081432;28;20454;-68
2021/12/27 06:42:47;;;;;;;53.03;25.43;;;-2.90;99.90;;;;;;5080570;28;20491;-69
2021/12/27 06:45:14;;;;;;;40.33;24.37;;;-2.80;99.90;;;;;;5081455;28;20548;-69
2021/12/27 06:47:41;;;;;;;43.43;25.07;;;-2.80;99.90;;;;;;5080107;28;20919;-69
2021/12/27 06:50:10;;;;;;;51.60;27.00;;;-2.70;99.90;;;;;;5079877;28;20458;-68
2021/12/27 06:52:39;;;;;;;44.50;24.70;;;-2.70;99.90;;;;;;5079427;28;20528;-69
2021/12/27 06:55:11;;;;;;;43.20;22.13;;;-2.60;99.90;;;;;;5080482;28;20469;-69
2021/12/27 06:57:38;;;;;;;46.23;25.20;;;-2.60;99.90;;;;;;5079034;28;20886;-68
2021/12/27 07:00:07;;;;;;;39.33;23.10;;;-2.60;99.90;;;;;;5077503;28;20462;-69
2021/12/27 07:02:34;;;;;;;48.03;25.40;;;-2.70;99.90;;;;;;5077713;28;20488;-69
2021/12/27 07:05:00;;;;;;;47.03;23.53;;;-2.60;99.90;;;;;;5077436;28;20553;-68
2021/12/27 07:07:28;;;;;;;46.00;22.50;;;-2.60;99.90;;;;;;5076135;28;20473;-68
2021/12/27 07:09:55;;;;;;;45.77;24.77;;;-2.50;99.90;;;;;;5077256;28;20458;-69
2021/12/27 07:12:23;;;;;;;44.27;22.97;;;-2.50;99.90;;;;;;5076973;28;20457;-69
2021/12/27 07:14:50;;;;;;;42.33;23.90;;;-2.40;99.90;;;;;;5077193;28;20450;-69
2021/12/27 07:17:17;;;;;;;41.83;26.10;;;-2.40;99.90;;;;;;5077162;28;20458;-69
2021/12/27 07:19:44;;;;;;;43.80;23.93;;;-2.40;99.90;;;;;;5077295;28;20841;-69
2021/12/27 07:22:11;;;;;;;46.63;24.40;;;-2.40;99.90;;;;;;5076561;28;20461;-69
2021/12/27 07:24:38;;;;;;;44.13;23.87;;;-2.40;99.90;;;;;;5077585;28;20476;-69
2021/12/27 07:27:05;;;;;;;44.00;24.60;;;-2.40;99.90;;;;;;5076713;28;20482;-68
2021/12/27 07:29:36;;;;;;;52.70;24.20;;;-2.30;99.90;;;;;;5077426;28;20468;-69
2021/12/27 07:32:03;;;;;;;53.80;24.60;;;-2.40;99.90;;;;;;5076727;28;20454;-68
2021/12/27 07:34:30;;;;;;;43.07;23.47;;;-2.30;99.90;;;;;;5077310;28;20804;-69
2021/12/27 07:36:57;;;;;;;51.80;24.87;;;-2.40;99.90;;;;;;5076509;28;20527;-69
2021/12/27 07:39:25;;;;;;;46.07;22.77;;;-2.40;99.90;;;;;;5076856;28;20466;-68
2021/12/27 07:41:52;;;;;;;41.90;24.00;;;-2.40;99.90;;;;;;5076740;28;20883;-69
2021/12/27 07:44:19;;;;;;;47.27;25.77;;;-2.30;99.90;;;;;;5076593;28;20486;-68
2021/12/27 07:46:47;;;;;;;43.47;23.67;;;-2.30;99.90;;;;;;5076301;28;20458;-68
2021/12/27 07:49:15;;;;;;;45.57;25.37;;;-2.30;99.90;;;;;;5076450;28;20458;-69
2021/12/27 07:51:43;;;;;;;47.30;23.57;;;-2.20;99.90;;;;;;5075955;28;20465;-69
2021/12/27 07:54:09;;;;;;;54.10;25.97;;;-2.20;99.90;;;;;;5076187;28;20450;-69
2021/12/27 07:56:37;;;;;;;47.20;23.97;;;-2.20;99.90;;;;;;5076325;28;20771;-68
2021/12/27 07:59:06;;;;;;;48.67;26.17;;;-2.20;99.90;;;;;;5076243;28;20461;-68
2021/12/27 08:01:33;;;;;;;43.07;23.00;;;-2.20;99.90;;;;;;5076626;28;20466;-68
2021/12/27 08:04:05;;;;;;;45.10;24.37;;;-2.10;99.90;;;;;;5076424;28;20482;-69
2021/12/27 08:06:32;;;;;;;47.67;26.20;;;-2.10;99.90;;;;;;5076580;28;20858;-68
2021/12/27 08:08:59;;;;;;;47.40;25.17;;;-2.00;99.90;;;;;;5076432;28;20458;-68
2021/12/27 08:11:26;;;;;;;49.87;25.90;;;-2.00;99.90;;;;;;5076116;28;20711;-69
2021/12/27 08:13:54;;;;;;;43.57;24.63;;;-1.90;99.90;;;;;;5076151;28;20454;-69
2021/12/27 08:16:24;;;;;;;51.73;26.27;;;-1.90;99.90;;;;;;5075673;28;20454;-68
2021/12/27 08:18:54;;;;;;;47.23;25.40;;;-1.90;99.90;;;;;;5075833;28;20972;-68
2021/12/27 08:21:24;;;;;;;52.63;25.03;;;-1.90;99.90;;;;;;5075726;28;20906;-69
2021/12/27 08:23:52;;;;;;;54.23;24.83;;;-1.80;99.90;;;;;;5075344;28;20485;-68
2021/12/27 08:26:19;;;;;;;50.33;25.30;;;-1.80;99.90;;;;;;5075579;28;20482;-68
2021/12/27 08:28:51;;;;;;;50.80;24.83;;;-1.80;99.90;;;;;;5075802;28;20446;-68
2021/12/27 08:31:18;;;;;;;51.40;23.33;;;-1.80;99.90;;;;;;5075856;28;20438;-68
2021/12/27 08:33:45;;;;;;;48.97;24.97;;;-1.80;99.90;;;;;;5075796;28;20460;-69
2021/12/27 08:36:12;;;;;;;47.37;25.17;;;-1.70;99.90;;;;;;5075391;28;20477;-69
2021/12/27 08:38:40;;;;;;;42.60;23.70;;;-1.70;99.90;;;;;;5075789;28;20467;-69
2021/12/27 08:41:07;;;;;;;42.27;24.20;;;-1.70;99.90;;;;;;5075274;28;20458;-69
2021/12/27 08:43:34;;;;;;;46.77;24.37;;;-1.70;99.90;;;;;;5075456;28;20493;-69
2021/12/27 08:46:00;;;;;;;47.20;24.77;;;-1.70;99.90;;;;;;5075240;28;20454;-68
2021/12/27 08:48:28;;;;;;;42.43;24.60;;;-1.70;99.90;;;;;;5075441;28;20455;-69
2021/12/27 08:50:55;;;;;;;47.37;23.30;;;-1.70;99.90;;;;;;5075430;28;20523;-69
2021/12/27 08:53:21;;;;;;;50.07;26.13;;;-1.70;99.90;;;;;;5075260;28;20465;-70
2021/12/27 08:55:51;;;;;;;45.57;25.00;;;-1.60;99.90;;;;;;5075396;28;20922;-70
2021/12/27 08:58:18;;;;;;;39.07;22.20;;;-1.50;99.90;;;;;;5075282;28;20458;-69
2021/12/27 09:00:45;;;;;;;51.57;25.33;;;-1.60;99.90;;;;;;5075075;28;20462;-68
2021/12/27 09:03:12;;;;;;;43.77;24.23;;;-1.50;99.90;;;;;;5075003;28;20764;-69
2021/12/27 09:05:39;;;;;;;43.77;24.33;;;-1.50;99.90;;;;;;5075078;28;20465;-69
2021/12/27 09:08:06;;;;;;;45.70;23.67;;;-1.40;99.90;;;;;;5075097;28;20462;-68
2021/12/27 09:10:33;;;;;;;49.90;24.63;;;-1.30;99.90;;;;;;5074993;28;20466;-69
2021/12/27 09:13:01;;;;;;;40.87;23.37;;;-1.30;99.90;;;;;;5075204;28;20458;-68
2021/12/27 09:15:28;;;;;;;46.73;24.90;;;-1.20;99.90;;;;;;5074846;28;20469;-69
2021/12/27 09:17:55;;;;;;;44.30;23.33;;;-1.20;99.90;;;;;;5074502;28;20941;-69
2021/12/27 09:20:24;;;;;;;43.27;22.30;;;-1.10;99.90;;;;;;5074984;28;20511;-69
2021/12/27 09:22:50;;;;;;;44.27;24.30;;;-1.10;99.90;;;;;;5074522;28;20494;-69
2021/12/27 09:25:18;;;;;;;42.90;23.40;;;-1.00;99.90;;;;;;5075053;28;20486;-69
2021/12/27 09:27:45;;;;;;;47.73;25.73;;;-0.90;99.90;;;;;;5074841;28;20617;-69
2021/12/27 09:30:13;;;;;;;45.33;24.37;;;-0.90;99.90;;;;;;5074308;28;20520;-69
2021/12/27 09:32:40;;;;;;;47.63;26.40;;;-0.90;99.90;;;;;;5074536;28;20455;-69
2021/12/27 09:35:08;;;;;;;41.23;23.60;;;-0.90;99.90;;;;;;5074944;28;20764;-69
2021/12/27 09:37:34;;;;;;;40.10;23.20;;;-0.90;99.90;;;;;;5074369;28;20469;-70
2021/12/27 09:40:01;;;;;;;43.00;23.27;;;-0.90;99.90;;;;;;5075000;28;20461;-70
2021/12/27 09:42:28;;;;;;;44.33;23.20;;;-0.90;99.90;;;;;;5074629;28;20469;-69
2021/12/27 09:44:56;;;;;;;43.90;24.53;;;-0.90;99.90;;;;;;5074043;28;20547;-69
2021/12/27 09:47:24;;;;;;;37.90;21.70;;;-0.90;99.90;;;;;;5074651;28;20454;-69
2021/12/27 09:49:52;;;;;;;43.67;24.20;;;-0.90;99.90;;;;;;5075093;28;20466;-69
2021/12/27 09:52:19;;;;;;;47.50;24.30;;;-0.80;99.90;;;;;;5074674;28;20462;-69
2021/12/27 09:54:47;;;;;;;47.77;24.00;;;-0.70;99.90;;;;;;5074698;28;20454;-69
2021/12/27 09:57:14;;;;;;;38.27;21.30;;;-0.60;99.90;;;;;;5074587;28;20465;-69
2021/12/27 09:59:41;;;;;;;38.50;22.40;;;-0.50;99.90;;;;;;5074299;28;20949;-69
2021/12/27 10:02:08;;;;;;;40.30;22.67;;;-0.50;99.90;;;;;;5074400;28;20458;-69
2021/12/27 10:04:36;;;;;;;45.27;23.90;;;-0.40;99.90;;;;;;5074220;28;20474;-69
2021/12/27 10:07:04;;;;;;;47.57;23.80;;;-0.40;99.90;;;;;;5074308;28;20465;-69
2021/12/27 10:09:34;;;;;;;46.80;24.47;;;-0.50;99.90;;;;;;5075121;28;20454;-69
2021/12/27 10:12:06;;;;;;;46.80;24.37;;;-0.50;99.90;;;;;;5074462;28;20922;-69
2021/12/27 10:14:35;;;;;;;43.97;24.20;;;-0.50;99.90;;;;;;5074401;28;20446;-69
2021/12/27 10:17:10;;;;;;;52.33;25.30;;;-0.40;99.90;;;;;;5074347;28;20536;-69
2021/12/27 10:19:39;;;;;;;45.27;24.00;;;-0.40;99.90;;;;;;5074070;28;20453;-70
2021/12/27 10:22:11;;;;;;;43.80;24.23;;;-0.30;99.90;;;;;;5074189;28;20796;-69
2021/12/27 10:24:39;;;;;;;50.70;27.07;;;-0.30;99.90;;;;;;5074459;28;20994;-69
2021/12/27 10:27:06;;;;;;;41.87;23.90;;;-0.30;99.90;;;;;;5074019;28;20486;-70
2021/12/27 10:29:35;;;;;;;44.27;24.97;;;-0.20;99.90;;;;;;5073954;28;20466;-70
2021/12/27 10:32:05;;;;;;;52.87;28.30;;;-0.20;99.90;;;;;;5073662;28;20458;-70
2021/12/27 10:34:34;;;;;;;54.07;26.00;;;-0.20;99.90;;;;;;5074186;28;20439;-71
2021/12/27 10:37:21;;;;;;;47.13;25.03;;;-0.30;99.90;;;;;;5074082;28;20454;-70
2021/12/27 10:39:52;;;;;;;44.77;24.50;;;-0.10;99.90;;;;;;5074346;28;20504;-69
2021/12/27 10:42:22;;;;;;;38.47;22.77;;;0.00;99.90;;;;;;5075490;28;20469;-69
2021/12/27 10:44:51;;;;;;;45.47;24.13;;;0.10;99.90;;;;;;5077737;28;20807;-69
2021/12/27 10:47:47;;;;;;;40.10;21.80;;;0.10;99.90;;;;;;5077689;28;20472;-69
2021/12/27 10:50:17;;;;;;;41.03;23.13;;;0.20;99.90;;;;;;5077288;28;20438;-70
2021/12/27 10:52:48;;;;;;;41.40;22.67;;;0.30;99.90;;;;;;5077792;28;20827;-70
2021/12/27 10:55:18;;;;;;;43.93;22.57;;;0.50;99.90;;;;;;5077595;28;20443;-70
2021/12/27 10:57:45;;;;;;;41.90;23.13;;;0.60;99.90;;;;;;5077433;28;20454;-71
2021/12/27 11:00:31;;;;;;;39.47;21.80;;;0.60;99.90;;;;;;5077733;28;20487;-70
2021/12/27 11:03:02;;;;;;;44.77;24.87;;;0.60;99.90;;;;;;5077521;28;20504;-69
2021/12/27 11:05:29;;;;;;;39.13;21.93;;;0.60;99.90;;;;;;5077676;28;20535;-70
2021/12/27 11:08:01;;;;;;;161.37;81.07;;;0.50;99.90;;;;;;5077323;28;20481;-69
2021/12/27 11:10:29;;;;;;;42.13;25.63;;;0.50;99.90;;;;;;5078294;28;20790;-70
2021/12/27 11:12:59;;;;;;;42.07;23.30;;;0.40;99.90;;;;;;5077495;28;20462;-71
2021/12/27 11:15:27;;;;;;;44.93;24.37;;;0.50;99.90;;;;;;5077518;28;20531;-71
2021/12/27 11:17:56;;;;;;;43.67;26.00;;;0.50;99.90;;;;;;5077498;28;20458;-70
2021/12/27 11:20:24;;;;;;;45.43;23.53;;;0.60;99.90;;;;;;5077339;28;20922;-71
2021/12/27 11:22:54;;;;;;;47.90;26.10;;;0.60;99.90;;;;;;5077018;28;20458;-70
2021/12/27 11:25:27;;;;;;;40.67;23.10;;;0.70;99.90;;;;;;5077115;28;20773;-71
2021/12/27 11:27:54;;;;;;;40.87;24.80;;;0.80;99.90;;;;;;5077156;28;21021;-70
2021/12/27 11:30:23;;;;;;;41.30;23.20;;;0.90;99.90;;;;;;5077221;28;20454;-70
2021/12/27 11:33:12;;;;;;;41.97;23.67;;;0.90;99.90;;;;;;5077881;28;20511;-72
2021/12/27 11:35:41;;;;;;;46.37;24.30;;;1.00;99.90;;;;;;5077306;28;20443;-72
2021/12/27 11:38:27;;;;;;;45.43;24.33;;;1.00;99.90;;;;;;5077904;28;20466;-70
2021/12/27 11:40:55;;;;;;;44.60;23.13;;;1.10;99.90;;;;;;5076949;28;20446;-71
2021/12/27 11:43:22;;;;;;;40.80;23.33;;;1.20;99.90;;;;;;5076884;28;20524;-71
2021/12/27 11:45:53;;;;;;;44.00;23.20;;;1.30;99.90;;;;;;5076567;28;20887;-71
2021/12/27 11:48:22;;;;;;;42.17;23.10;;;1.40;99.90;;;;;;5076519;28;20499;-69
2021/12/27 11:51:10;;;;;;;40.67;23.03;;;1.50;99.90;;;;;;5076503;28;20469;-70
2021/12/27 11:53:50;;;;;;;40.00;23.13;;;1.50;99.90;;;;;;5075944;28;20446;-70
2021/12/27 11:56:57;;;;;;;42.27;23.63;;;1.60;99.90;;;;;;5076363;28;20980;-71
2021/12/27 11:59:31;;;;;;;50.43;25.10;;;1.60;99.90;;;;;;5076860;28;20465;-70
2021/12/27 12:02:00;;;;;;;39.50;23.20;;;1.70;99.90;;;;;;5076705;28;20449;-71
2021/12/27 12:04:40;;;;;;;41.47;24.20;;;1.70;99.90;;;;;;5076101;28;20539;-71
2021/12/27 12:07:07;;;;;;;37.87;21.63;;;1.70;99.90;;;;;;5076351;28;20903;-71
2021/12/27 12:09:45;;;;;;;42.57;22.37;;;1.70;99.90;;;;;;5076303;28;20462;-70
2021/12/27 12:12:14;;;;;;;43.40;22.10;;;1.70;99.90;;;;;;5076523;28;20480;-70
2021/12/27 12:14:42;;;;;;;40.03;22.20;;;1.70;99.90;;;;;;5076190;28;20461;-71
2021/12/27 12:17:14;;;;;;;38.87;21.77;;;1.80;99.90;;;;;;5076415;28;20458;-70
2021/12/27 12:19:43;;;;;;;55.60;26.20;;;1.70;99.90;;;;;;5076187;28;20442;-70
2021/12/27 12:22:33;;;;;;;48.83;27.07;;;1.70;99.90;;;;;;5076350;28;20458;-71
2021/12/27 12:25:10;;;;;;;42.90;22.53;;;1.80;99.90;;;;;;5075944;28;20515;-71
2021/12/27 12:27:49;;;;;;;43.33;22.67;;;1.80;99.90;;;;;;5075973;28;20539;-71
2021/12/27 12:30:16;;;;;;;43.73;22.70;;;1.80;99.90;;;;;;5076169;28;20864;-70
2021/12/27 12:32:58;;;;;;;41.07;21.80;;;1.80;99.90;;;;;;5075602;28;20454;-70
2021/12/27 12:35:40;;;;;;;39.00;21.57;;;1.80;99.90;;;;;;5076122;28;20439;-70